sensor_id;sensor_type;location;lat;lon;timestamp;P1;durP1;ratioP1;P2;durP2;ratioP2
59824;SDS011;45703;50.898;6.054;2024-02-26T00:01:14;4.35;;;1.45;;
59824;SDS011;45703;50.898;6.054;2024-02-26T00:03:40;4.32;;;1.25;;
59824;SDS011;45703;50.898;6.054;2024-02-26T00:06:07;4.90;;;1.50;;
59824;SDS011;45703;50.898;6.054;2024-02-26T00:08:32;5.38;;;1.38;;
59824;SDS011;45703;50.898;6.054;2024-02-26T00:10:58;5.15;;;1.40;;
59824;SDS011;45703;50.898;6.054;2024-02-26T00:13:23;6.13;;;1.48;;
59824;SDS011;45703;50.898;6.054;2024-02-26T00:15:48;5.30;;;1.42;;
59824;SDS011;45703;50.898;6.054;2024-02-26T00:18:14;4.43;;;1.23;;
59824;SDS011;45703;50.898;6.054;2024-02-26T00:20:39;5.15;;;1.40;;
59824;SDS011;45703;50.898;6.054;2024-02-26T00:23:06;4.25;;;1.27;;
59824;SDS011;45703;50.898;6.054;2024-02-26T00:25:32;3.65;;;1.13;;
59824;SDS011;45703;50.898;6.054;2024-02-26T00:27:57;4.45;;;1.40;;
59824;SDS011;45703;50.898;6.054;2024-02-26T00:30:22;2.88;;;1.00;;
59824;SDS011;45703;50.898;6.054;2024-02-26T00:32:48;4.82;;;1.50;;
59824;SDS011;45703;50.898;6.054;2024-02-26T00:35:13;5.25;;;1.40;;
59824;SDS011;45703;50.898;6.054;2024-02-26T00:37:40;4.15;;;1.20;;
59824;SDS011;45703;50.898;6.054;2024-02-26T00:40:08;3.75;;;1.10;;
59824;SDS011;45703;50.898;6.054;2024-02-26T00:42:34;3.80;;;1.02;;
59824;SDS011;45703;50.898;6.054;2024-02-26T00:44:59;5.25;;;1.30;;
59824;SDS011;45703;50.898;6.054;2024-02-26T00:47:24;4.38;;;1.30;;
59824;SDS011;45703;50.898;6.054;2024-02-26T00:49:50;4.43;;;1.25;;
59824;SDS011;45703;50.898;6.054;2024-02-26T00:52:15;3.88;;;1.00;;
59824;SDS011;45703;50.898;6.054;2024-02-26T00:54:40;6.03;;;1.50;;
59824;SDS011;45703;50.898;6.054;2024-02-26T00:57:06;3.83;;;1.20;;
59824;SDS011;45703;50.898;6.054;2024-02-26T00:59:31;4.85;;;1.20;;
59824;SDS011;45703;50.898;6.054;2024-02-26T01:01:56;4.22;;;1.17;;
59824;SDS011;45703;50.898;6.054;2024-02-26T01:04:23;6.43;;;1.38;;
59824;SDS011;45703;50.898;6.054;2024-02-26T01:06:49;3.60;;;1.10;;
59824;SDS011;45703;50.898;6.054;2024-02-26T01:09:14;4.85;;;1.25;;
59824;SDS011;45703;50.898;6.054;2024-02-26T01:11:39;5.88;;;1.52;;
59824;SDS011;45703;50.898;6.054;2024-02-26T01:14:05;4.38;;;1.23;;
59824;SDS011;45703;50.898;6.054;2024-02-26T01:16:31;4.07;;;1.15;;
59824;SDS011;45703;50.898;6.054;2024-02-26T01:18:57;4.90;;;1.63;;
59824;SDS011;45703;50.898;6.054;2024-02-26T01:21:22;5.68;;;1.60;;
59824;SDS011;45703;50.898;6.054;2024-02-26T01:23:47;5.03;;;1.20;;
59824;SDS011;45703;50.898;6.054;2024-02-26T01:26:13;5.63;;;1.25;;
59824;SDS011;45703;50.898;6.054;2024-02-26T01:28:38;3.95;;;1.20;;
59824;SDS011;45703;50.898;6.054;2024-02-26T01:31:03;4.78;;;1.25;;
59824;SDS011;45703;50.898;6.054;2024-02-26T01:33:31;5.30;;;1.20;;
59824;SDS011;45703;50.898;6.054;2024-02-26T01:35:57;4.05;;;1.05;;
59824;SDS011;45703;50.898;6.054;2024-02-26T01:38:22;4.53;;;1.20;;
59824;SDS011;45703;50.898;6.054;2024-02-26T01:40:47;5.38;;;1.33;;
59824;SDS011;45703;50.898;6.054;2024-02-26T01:43:13;5.85;;;1.20;;
59824;SDS011;45703;50.898;6.054;2024-02-26T01:45:38;4.18;;;1.23;;
59824;SDS011;45703;50.898;6.054;2024-02-26T01:48:04;3.72;;;1.10;;
59824;SDS011;45703;50.898;6.054;2024-02-26T01:50:29;3.15;;;1.00;;
59824;SDS011;45703;50.898;6.054;2024-02-26T01:52:55;4.75;;;1.10;;
59824;SDS011;45703;50.898;6.054;2024-02-26T01:55:22;4.32;;;1.10;;
59824;SDS011;45703;50.898;6.054;2024-02-26T01:57:49;4.30;;;1.17;;
59824;SDS011;45703;50.898;6.054;2024-02-26T02:00:16;5.53;;;1.55;;
59824;SDS011;45703;50.898;6.054;2024-02-26T02:02:43;3.50;;;1.23;;
59824;SDS011;45703;50.898;6.054;2024-02-26T02:05:11;4.70;;;1.20;;
59824;SDS011;45703;50.898;6.054;2024-02-26T02:07:39;4.25;;;1.20;;
59824;SDS011;45703;50.898;6.054;2024-02-26T02:10:06;4.75;;;1.25;;
59824;SDS011;45703;50.898;6.054;2024-02-26T02:12:32;3.50;;;1.10;;
59824;SDS011;45703;50.898;6.054;2024-02-26T02:14:59;4.70;;;1.30;;
59824;SDS011;45703;50.898;6.054;2024-02-26T02:17:25;3.95;;;0.93;;
59824;SDS011;45703;50.898;6.054;2024-02-26T02:19:52;4.95;;;1.33;;
59824;SDS011;45703;50.898;6.054;2024-02-26T02:22:18;4.47;;;1.27;;
59824;SDS011;45703;50.898;6.054;2024-02-26T02:24:43;4.22;;;1.08;;
59824;SDS011;45703;50.898;6.054;2024-02-26T02:27:09;5.00;;;1.25;;
59824;SDS011;45703;50.898;6.054;2024-02-26T02:29:35;3.67;;;1.10;;
59824;SDS011;45703;50.898;6.054;2024-02-26T02:32:01;4.93;;;1.10;;
59824;SDS011;45703;50.898;6.054;2024-02-26T02:34:26;4.93;;;1.10;;
59824;SDS011;45703;50.898;6.054;2024-02-26T02:36:53;4.85;;;1.17;;
59824;SDS011;45703;50.898;6.054;2024-02-26T02:39:19;2.90;;;0.90;;
59824;SDS011;45703;50.898;6.054;2024-02-26T02:41:45;4.70;;;1.05;;
59824;SDS011;45703;50.898;6.054;2024-02-26T02:44:11;3.33;;;0.98;;
59824;SDS011;45703;50.898;6.054;2024-02-26T02:46:37;3.90;;;1.05;;
59824;SDS011;45703;50.898;6.054;2024-02-26T02:49:02;4.28;;;1.08;;
59824;SDS011;45703;50.898;6.054;2024-02-26T02:51:28;3.75;;;1.10;;
59824;SDS011;45703;50.898;6.054;2024-02-26T02:53:53;5.20;;;1.20;;
59824;SDS011;45703;50.898;6.054;2024-02-26T02:56:19;5.97;;;1.67;;
59824;SDS011;45703;50.898;6.054;2024-02-26T02:58:44;3.85;;;1.30;;
59824;SDS011;45703;50.898;6.054;2024-02-26T03:01:10;5.38;;;1.25;;
59824;SDS011;45703;50.898;6.054;2024-02-26T03:03:35;4.55;;;1.13;;
59824;SDS011;45703;50.898;6.054;2024-02-26T03:06:01;4.43;;;1.40;;
59824;SDS011;45703;50.898;6.054;2024-02-26T03:08:28;4.82;;;1.20;;
59824;SDS011;45703;50.898;6.054;2024-02-26T03:10:53;5.18;;;1.50;;
59824;SDS011;45703;50.898;6.054;2024-02-26T03:13:19;4.95;;;1.30;;
59824;SDS011;45703;50.898;6.054;2024-02-26T03:15:44;3.78;;;1.10;;
59824;SDS011;45703;50.898;6.054;2024-02-26T03:18:10;5.95;;;1.50;;
59824;SDS011;45703;50.898;6.054;2024-02-26T03:20:35;4.20;;;1.40;;
59824;SDS011;45703;50.898;6.054;2024-02-26T03:23:02;4.82;;;1.42;;
59824;SDS011;45703;50.898;6.054;2024-02-26T03:25:27;5.10;;;1.30;;
59824;SDS011;45703;50.898;6.054;2024-02-26T03:27:53;4.75;;;1.50;;
59824;SDS011;45703;50.898;6.054;2024-02-26T03:30:18;4.35;;;1.40;;
59824;SDS011;45703;50.898;6.054;2024-02-26T03:32:43;5.35;;;1.50;;
59824;SDS011;45703;50.898;6.054;2024-02-26T03:35:09;4.80;;;1.58;;
59824;SDS011;45703;50.898;6.054;2024-02-26T03:37:34;4.07;;;1.27;;
59824;SDS011;45703;50.898;6.054;2024-02-26T03:40:00;3.70;;;1.30;;
59824;SDS011;45703;50.898;6.054;2024-02-26T03:42:26;4.43;;;1.27;;
59824;SDS011;45703;50.898;6.054;2024-02-26T03:44:51;5.07;;;1.20;;
59824;SDS011;45703;50.898;6.054;2024-02-26T03:47:17;3.75;;;1.30;;
59824;SDS011;45703;50.898;6.054;2024-02-26T03:49:42;5.25;;;2.83;;
59824;SDS011;45703;50.898;6.054;2024-02-26T03:52:08;5.50;;;1.50;;
59824;SDS011;45703;50.898;6.054;2024-02-26T03:54:33;5.57;;;1.45;;
59824;SDS011;45703;50.898;6.054;2024-02-26T03:56:58;6.03;;;1.60;;
59824;SDS011;45703;50.898;6.054;2024-02-26T03:59:24;3.50;;;1.10;;
59824;SDS011;45703;50.898;6.054;2024-02-26T04:01:50;4.05;;;1.17;;
59824;SDS011;45703;50.898;6.054;2024-02-26T04:04:16;3.92;;;1.35;;
59824;SDS011;45703;50.898;6.054;2024-02-26T04:06:45;4.40;;;1.50;;
59824;SDS011;45703;50.898;6.054;2024-02-26T04:09:11;4.05;;;1.10;;
59824;SDS011;45703;50.898;6.054;2024-02-26T04:11:38;4.00;;;1.30;;
59824;SDS011;45703;50.898;6.054;2024-02-26T04:14:04;4.53;;;1.33;;
59824;SDS011;45703;50.898;6.054;2024-02-26T04:16:30;3.65;;;1.15;;
59824;SDS011;45703;50.898;6.054;2024-02-26T04:18:56;5.80;;;1.40;;
59824;SDS011;45703;50.898;6.054;2024-02-26T04:21:21;3.45;;;1.13;;
59824;SDS011;45703;50.898;6.054;2024-02-26T04:23:47;5.93;;;1.25;;
59824;SDS011;45703;50.898;6.054;2024-02-26T04:26:14;3.42;;;1.00;;
59824;SDS011;45703;50.898;6.054;2024-02-26T04:28:39;3.53;;;1.00;;
59824;SDS011;45703;50.898;6.054;2024-02-26T04:31:04;3.47;;;1.00;;
59824;SDS011;45703;50.898;6.054;2024-02-26T04:33:30;4.50;;;1.23;;
59824;SDS011;45703;50.898;6.054;2024-02-26T04:35:58;3.90;;;1.02;;
59824;SDS011;45703;50.898;6.054;2024-02-26T04:38:24;4.55;;;1.20;;
59824;SDS011;45703;50.898;6.054;2024-02-26T04:40:49;4.45;;;1.20;;
59824;SDS011;45703;50.898;6.054;2024-02-26T04:43:14;4.68;;;1.35;;
59824;SDS011;45703;50.898;6.054;2024-02-26T04:45:40;4.32;;;1.08;;
59824;SDS011;45703;50.898;6.054;2024-02-26T04:48:06;4.05;;;1.50;;
59824;SDS011;45703;50.898;6.054;2024-02-26T04:50:31;4.38;;;1.17;;
59824;SDS011;45703;50.898;6.054;2024-02-26T04:52:57;5.18;;;1.20;;
59824;SDS011;45703;50.898;6.054;2024-02-26T04:55:22;4.80;;;1.33;;
59824;SDS011;45703;50.898;6.054;2024-02-26T04:57:47;3.70;;;1.10;;
59824;SDS011;45703;50.898;6.054;2024-02-26T05:00:13;5.30;;;1.10;;
59824;SDS011;45703;50.898;6.054;2024-02-26T05:02:39;4.95;;;1.20;;
59824;SDS011;45703;50.898;6.054;2024-02-26T05:05:05;5.47;;;1.30;;
59824;SDS011;45703;50.898;6.054;2024-02-26T05:07:31;3.92;;;1.15;;
59824;SDS011;45703;50.898;6.054;2024-02-26T05:09:57;3.42;;;1.00;;
59824;SDS011;45703;50.898;6.054;2024-02-26T05:12:22;5.43;;;1.10;;
59824;SDS011;45703;50.898;6.054;2024-02-26T05:14:48;3.47;;;1.10;;
59824;SDS011;45703;50.898;6.054;2024-02-26T05:17:13;3.75;;;1.20;;
59824;SDS011;45703;50.898;6.054;2024-02-26T05:19:38;4.32;;;1.05;;
59824;SDS011;45703;50.898;6.054;2024-02-26T05:22:04;4.57;;;1.20;;
59824;SDS011;45703;50.898;6.054;2024-02-26T05:24:29;4.65;;;1.05;;
59824;SDS011;45703;50.898;6.054;2024-02-26T05:26:54;4.50;;;1.10;;
59824;SDS011;45703;50.898;6.054;2024-02-26T05:29:20;3.67;;;1.20;;
59824;SDS011;45703;50.898;6.054;2024-02-26T05:31:46;5.05;;;1.70;;
59824;SDS011;45703;50.898;6.054;2024-02-26T05:34:11;3.38;;;0.90;;
59824;SDS011;45703;50.898;6.054;2024-02-26T05:36:36;3.33;;;0.90;;
59824;SDS011;45703;50.898;6.054;2024-02-26T05:39:02;4.70;;;0.90;;
59824;SDS011;45703;50.898;6.054;2024-02-26T05:41:28;4.13;;;1.00;;
59824;SDS011;45703;50.898;6.054;2024-02-26T05:43:54;2.72;;;0.90;;
59824;SDS011;45703;50.898;6.054;2024-02-26T05:46:20;3.35;;;1.00;;
59824;SDS011;45703;50.898;6.054;2024-02-26T05:48:47;4.80;;;1.20;;
59824;SDS011;45703;50.898;6.054;2024-02-26T05:51:13;4.10;;;1.15;;
59824;SDS011;45703;50.898;6.054;2024-02-26T05:53:38;4.32;;;1.05;;
59824;SDS011;45703;50.898;6.054;2024-02-26T05:56:04;4.60;;;1.13;;
59824;SDS011;45703;50.898;6.054;2024-02-26T05:58:30;3.92;;;1.08;;
59824;SDS011;45703;50.898;6.054;2024-02-26T06:00:56;4.20;;;1.15;;
59824;SDS011;45703;50.898;6.054;2024-02-26T06:03:21;4.45;;;1.20;;
59824;SDS011;45703;50.898;6.054;2024-02-26T06:05:47;5.13;;;1.30;;
59824;SDS011;45703;50.898;6.054;2024-02-26T06:08:12;4.18;;;1.20;;
59824;SDS011;45703;50.898;6.054;2024-02-26T06:10:38;4.75;;;1.30;;
59824;SDS011;45703;50.898;6.054;2024-02-26T06:13:04;5.22;;;1.55;;
59824;SDS011;45703;50.898;6.054;2024-02-26T06:15:30;5.78;;;1.73;;
59824;SDS011;45703;50.898;6.054;2024-02-26T06:17:55;5.65;;;1.60;;
59824;SDS011;45703;50.898;6.054;2024-02-26T06:20:21;5.47;;;1.60;;
59824;SDS011;45703;50.898;6.054;2024-02-26T06:22:46;4.38;;;1.45;;
59824;SDS011;45703;50.898;6.054;2024-02-26T06:25:12;4.38;;;1.40;;
59824;SDS011;45703;50.898;6.054;2024-02-26T06:27:37;4.63;;;1.30;;
59824;SDS011;45703;50.898;6.054;2024-02-26T06:30:03;5.03;;;1.60;;
59824;SDS011;45703;50.898;6.054;2024-02-26T06:32:28;4.15;;;1.50;;
59824;SDS011;45703;50.898;6.054;2024-02-26T06:34:54;6.28;;;1.70;;
59824;SDS011;45703;50.898;6.054;2024-02-26T06:37:20;7.55;;;2.05;;
59824;SDS011;45703;50.898;6.054;2024-02-26T06:39:45;5.93;;;1.60;;
59824;SDS011;45703;50.898;6.054;2024-02-26T06:42:11;5.10;;;1.42;;
59824;SDS011;45703;50.898;6.054;2024-02-26T06:44:36;3.80;;;1.25;;
59824;SDS011;45703;50.898;6.054;2024-02-26T06:47:01;6.38;;;1.65;;
59824;SDS011;45703;50.898;6.054;2024-02-26T06:49:27;5.32;;;1.60;;
59824;SDS011;45703;50.898;6.054;2024-02-26T06:51:54;4.10;;;1.40;;
59824;SDS011;45703;50.898;6.054;2024-02-26T06:54:19;4.65;;;1.55;;
59824;SDS011;45703;50.898;6.054;2024-02-26T06:56:45;4.50;;;1.60;;
59824;SDS011;45703;50.898;6.054;2024-02-26T06:59:10;5.72;;;1.48;;
59824;SDS011;45703;50.898;6.054;2024-02-26T07:01:36;4.68;;;1.38;;
59824;SDS011;45703;50.898;6.054;2024-02-26T07:04:01;4.97;;;1.50;;
59824;SDS011;45703;50.898;6.054;2024-02-26T07:06:27;6.00;;;1.80;;
59824;SDS011;45703;50.898;6.054;2024-02-26T07:08:52;5.68;;;1.83;;
59824;SDS011;45703;50.898;6.054;2024-02-26T07:11:18;6.32;;;1.70;;
59824;SDS011;45703;50.898;6.054;2024-02-26T07:13:45;5.40;;;1.95;;
59824;SDS011;45703;50.898;6.054;2024-02-26T07:16:10;6.85;;;2.00;;
59824;SDS011;45703;50.898;6.054;2024-02-26T07:18:36;5.90;;;1.90;;
59824;SDS011;45703;50.898;6.054;2024-02-26T07:21:02;6.47;;;2.10;;
59824;SDS011;45703;50.898;6.054;2024-02-26T07:23:28;6.30;;;1.70;;
59824;SDS011;45703;50.898;6.054;2024-02-26T07:25:54;5.63;;;1.73;;
59824;SDS011;45703;50.898;6.054;2024-02-26T07:28:19;5.60;;;1.65;;
59824;SDS011;45703;50.898;6.054;2024-02-26T07:30:45;5.65;;;2.00;;
59824;SDS011;45703;50.898;6.054;2024-02-26T07:33:10;5.95;;;1.90;;
59824;SDS011;45703;50.898;6.054;2024-02-26T07:35:36;5.68;;;2.25;;
59824;SDS011;45703;50.898;6.054;2024-02-26T07:38:03;6.88;;;2.50;;
59824;SDS011;45703;50.898;6.054;2024-02-26T07:40:29;6.28;;;2.58;;
59824;SDS011;45703;50.898;6.054;2024-02-26T07:42:55;6.25;;;2.50;;
59824;SDS011;45703;50.898;6.054;2024-02-26T07:45:21;7.07;;;2.78;;
59824;SDS011;45703;50.898;6.054;2024-02-26T07:47:46;6.70;;;2.97;;
59824;SDS011;45703;50.898;6.054;2024-02-26T07:50:12;6.32;;;2.65;;
59824;SDS011;45703;50.898;6.054;2024-02-26T07:52:38;6.50;;;2.58;;
59824;SDS011;45703;50.898;6.054;2024-02-26T07:55:03;7.15;;;3.10;;
59824;SDS011;45703;50.898;6.054;2024-02-26T07:57:30;7.97;;;3.22;;
59824;SDS011;45703;50.898;6.054;2024-02-26T07:59:55;7.35;;;3.10;;
59824;SDS011;45703;50.898;6.054;2024-02-26T08:02:20;6.93;;;3.28;;
59824;SDS011;45703;50.898;6.054;2024-02-26T08:04:47;6.80;;;3.08;;
59824;SDS011;45703;50.898;6.054;2024-02-26T08:07:12;7.20;;;3.13;;
59824;SDS011;45703;50.898;6.054;2024-02-26T08:09:37;6.05;;;2.85;;
59824;SDS011;45703;50.898;6.054;2024-02-26T08:12:03;7.10;;;3.22;;
59824;SDS011;45703;50.898;6.054;2024-02-26T08:14:28;7.25;;;2.53;;
59824;SDS011;45703;50.898;6.054;2024-02-26T08:16:54;6.63;;;2.75;;
59824;SDS011;45703;50.898;6.054;2024-02-26T08:19:19;7.90;;;2.80;;
59824;SDS011;45703;50.898;6.054;2024-02-26T08:21:45;7.43;;;2.80;;
59824;SDS011;45703;50.898;6.054;2024-02-26T08:24:10;7.20;;;2.90;;
59824;SDS011;45703;50.898;6.054;2024-02-26T08:26:36;6.68;;;3.08;;
59824;SDS011;45703;50.898;6.054;2024-02-26T08:29:01;7.40;;;2.72;;
59824;SDS011;45703;50.898;6.054;2024-02-26T08:31:27;8.18;;;3.45;;
59824;SDS011;45703;50.898;6.054;2024-02-26T08:33:53;7.63;;;2.97;;
59824;SDS011;45703;50.898;6.054;2024-02-26T08:36:18;7.13;;;3.10;;
59824;SDS011;45703;50.898;6.054;2024-02-26T08:38:43;7.78;;;3.42;;
59824;SDS011;45703;50.898;6.054;2024-02-26T08:41:09;7.93;;;3.40;;
59824;SDS011;45703;50.898;6.054;2024-02-26T08:43:35;6.85;;;2.85;;
59824;SDS011;45703;50.898;6.054;2024-02-26T08:46:00;8.18;;;3.30;;
59824;SDS011;45703;50.898;6.054;2024-02-26T08:48:26;6.68;;;2.97;;
59824;SDS011;45703;50.898;6.054;2024-02-26T08:50:51;7.68;;;3.35;;
59824;SDS011;45703;50.898;6.054;2024-02-26T08:53:16;7.20;;;3.30;;
59824;SDS011;45703;50.898;6.054;2024-02-26T08:55:42;6.97;;;3.40;;
59824;SDS011;45703;50.898;6.054;2024-02-26T08:58:07;6.25;;;2.97;;
59824;SDS011;45703;50.898;6.054;2024-02-26T09:00:33;6.40;;;2.60;;
59824;SDS011;45703;50.898;6.054;2024-02-26T09:02:58;6.90;;;3.10;;
59824;SDS011;45703;50.898;6.054;2024-02-26T09:05:24;7.13;;;3.10;;
59824;SDS011;45703;50.898;6.054;2024-02-26T09:07:49;6.30;;;2.50;;
59824;SDS011;45703;50.898;6.054;2024-02-26T09:10:16;6.53;;;2.40;;
59824;SDS011;45703;50.898;6.054;2024-02-26T09:12:42;6.20;;;3.03;;
59824;SDS011;45703;50.898;6.054;2024-02-26T09:15:07;6.55;;;3.08;;
59824;SDS011;45703;50.898;6.054;2024-02-26T09:17:33;6.53;;;2.80;;
59824;SDS011;45703;50.898;6.054;2024-02-26T09:19:58;7.03;;;2.90;;
59824;SDS011;45703;50.898;6.054;2024-02-26T09:22:24;7.80;;;2.75;;
59824;SDS011;45703;50.898;6.054;2024-02-26T09:24:49;6.95;;;2.85;;
59824;SDS011;45703;50.898;6.054;2024-02-26T09:27:16;6.50;;;2.95;;
59824;SDS011;45703;50.898;6.054;2024-02-26T09:29:42;6.13;;;2.70;;
59824;SDS011;45703;50.898;6.054;2024-02-26T09:32:07;6.18;;;2.70;;
59824;SDS011;45703;50.898;6.054;2024-02-26T09:34:33;7.88;;;3.25;;
59824;SDS011;45703;50.898;6.054;2024-02-26T09:36:59;7.40;;;2.67;;
59824;SDS011;45703;50.898;6.054;2024-02-26T09:39:25;6.68;;;2.80;;
59824;SDS011;45703;50.898;6.054;2024-02-26T09:41:50;6.20;;;2.53;;
59824;SDS011;45703;50.898;6.054;2024-02-26T09:44:18;6.75;;;3.08;;
59824;SDS011;45703;50.898;6.054;2024-02-26T09:46:50;6.43;;;2.58;;
59824;SDS011;45703;50.898;6.054;2024-02-26T09:49:18;6.85;;;2.60;;
59824;SDS011;45703;50.898;6.054;2024-02-26T09:51:45;6.50;;;2.60;;
59824;SDS011;45703;50.898;6.054;2024-02-26T09:54:10;6.45;;;2.47;;
59824;SDS011;45703;50.898;6.054;2024-02-26T09:56:39;6.13;;;2.53;;
59824;SDS011;45703;50.898;6.054;2024-02-26T09:59:13;6.53;;;2.60;;
59824;SDS011;45703;50.898;6.054;2024-02-26T10:01:42;6.32;;;2.20;;
59824;SDS011;45703;50.898;6.054;2024-02-26T10:04:07;5.72;;;2.42;;
59824;SDS011;45703;50.898;6.054;2024-02-26T10:06:35;6.20;;;2.45;;
59824;SDS011;45703;50.898;6.054;2024-02-26T10:09:01;6.57;;;2.30;;
59824;SDS011;45703;50.898;6.054;2024-02-26T10:11:31;6.82;;;2.20;;
59824;SDS011;45703;50.898;6.054;2024-02-26T10:13:57;7.13;;;2.30;;
59824;SDS011;45703;50.898;6.054;2024-02-26T10:16:22;6.00;;;2.10;;
59824;SDS011;45703;50.898;6.054;2024-02-26T10:18:50;6.13;;;2.35;;
59824;SDS011;45703;50.898;6.054;2024-02-26T10:21:16;5.50;;;1.95;;
59824;SDS011;45703;50.898;6.054;2024-02-26T10:23:45;6.35;;;2.22;;
59824;SDS011;45703;50.898;6.054;2024-02-26T10:26:12;5.03;;;1.75;;
59824;SDS011;45703;50.898;6.054;2024-02-26T10:28:39;5.38;;;1.70;;
59824;SDS011;45703;50.898;6.054;2024-02-26T10:31:05;5.30;;;1.55;;
59824;SDS011;45703;50.898;6.054;2024-02-26T10:33:35;4.85;;;1.45;;
59824;SDS011;45703;50.898;6.054;2024-02-26T10:36:01;5.43;;;1.73;;
59824;SDS011;45703;50.898;6.054;2024-02-26T10:38:29;5.18;;;1.50;;
59824;SDS011;45703;50.898;6.054;2024-02-26T10:40:55;4.82;;;1.52;;
59824;SDS011;45703;50.898;6.054;2024-02-26T10:43:20;5.32;;;1.40;;
59824;SDS011;45703;50.898;6.054;2024-02-26T10:45:45;4.43;;;1.45;;
59824;SDS011;45703;50.898;6.054;2024-02-26T10:48:13;4.50;;;1.33;;
59824;SDS011;45703;50.898;6.054;2024-02-26T10:50:40;4.95;;;1.40;;
59824;SDS011;45703;50.898;6.054;2024-02-26T10:53:10;4.95;;;1.50;;
59824;SDS011;45703;50.898;6.054;2024-02-26T10:55:40;4.50;;;1.40;;
59824;SDS011;45703;50.898;6.054;2024-02-26T10:58:06;5.00;;;1.50;;
59824;SDS011;45703;50.898;6.054;2024-02-26T11:00:33;6.07;;;1.80;;
59824;SDS011;45703;50.898;6.054;2024-02-26T11:03:01;5.88;;;1.67;;
59824;SDS011;45703;50.898;6.054;2024-02-26T11:05:30;5.85;;;1.90;;
59824;SDS011;45703;50.898;6.054;2024-02-26T11:07:58;4.85;;;1.63;;
59824;SDS011;45703;50.898;6.054;2024-02-26T11:10:25;5.35;;;1.95;;
59824;SDS011;45703;50.898;6.054;2024-02-26T11:12:55;5.55;;;1.63;;
59824;SDS011;45703;50.898;6.054;2024-02-26T11:15:24;5.32;;;1.70;;
59824;SDS011;45703;50.898;6.054;2024-02-26T11:17:50;5.38;;;1.85;;
59824;SDS011;45703;50.898;6.054;2024-02-26T11:20:17;6.88;;;1.73;;
59824;SDS011;45703;50.898;6.054;2024-02-26T11:22:44;5.22;;;1.80;;
59824;SDS011;45703;50.898;6.054;2024-02-26T11:25:10;4.57;;;1.58;;
59824;SDS011;45703;50.898;6.054;2024-02-26T11:27:44;5.13;;;1.50;;
59824;SDS011;45703;50.898;6.054;2024-02-26T11:30:13;4.47;;;1.50;;
59824;SDS011;45703;50.898;6.054;2024-02-26T11:32:43;4.78;;;1.50;;
59824;SDS011;45703;50.898;6.054;2024-02-26T11:35:10;4.57;;;1.35;;
59824;SDS011;45703;50.898;6.054;2024-02-26T11:37:40;5.28;;;1.60;;
59824;SDS011;45703;50.898;6.054;2024-02-26T11:40:08;4.75;;;1.40;;
59824;SDS011;45703;50.898;6.054;2024-02-26T11:42:37;4.82;;;1.63;;
59824;SDS011;45703;50.898;6.054;2024-02-26T11:48:16;4.80;;;1.65;;
59824;SDS011;45703;50.898;6.054;2024-02-26T11:59:03;4.70;;;1.80;;
59824;SDS011;45703;50.898;6.054;2024-02-26T12:06:51;6.13;;;2.10;;
59824;SDS011;45703;50.898;6.054;2024-02-26T12:12:07;6.63;;;2.50;;
59824;SDS011;45703;50.898;6.054;2024-02-26T12:14:52;6.38;;;2.00;;
59824;SDS011;45703;50.898;6.054;2024-02-26T12:17:21;6.15;;;2.30;;
59824;SDS011;45703;50.898;6.054;2024-02-26T12:19:47;6.70;;;2.50;;
59824;SDS011;45703;50.898;6.054;2024-02-26T12:22:13;7.10;;;2.80;;
59824;SDS011;45703;50.898;6.054;2024-02-26T12:24:39;7.60;;;3.17;;
59824;SDS011;45703;50.898;6.054;2024-02-26T12:27:05;7.22;;;2.95;;
59824;SDS011;45703;50.898;6.054;2024-02-26T12:29:31;6.43;;;2.75;;
59824;SDS011;45703;50.898;6.054;2024-02-26T12:31:56;6.28;;;3.05;;
59824;SDS011;45703;50.898;6.054;2024-02-26T12:34:22;7.43;;;2.90;;
59824;SDS011;45703;50.898;6.054;2024-02-26T12:36:48;7.72;;;3.17;;
59824;SDS011;45703;50.898;6.054;2024-02-26T12:39:14;8.13;;;2.88;;
59824;SDS011;45703;50.898;6.054;2024-02-26T12:41:39;7.88;;;2.92;;
59824;SDS011;45703;50.898;6.054;2024-02-26T12:44:05;7.40;;;3.13;;
59824;SDS011;45703;50.898;6.054;2024-02-26T12:46:32;7.40;;;2.63;;
59824;SDS011;45703;50.898;6.054;2024-02-26T12:48:58;8.30;;;3.33;;
59824;SDS011;45703;50.898;6.054;2024-02-26T12:51:24;7.82;;;3.10;;
59824;SDS011;45703;50.898;6.054;2024-02-26T12:53:51;7.22;;;2.80;;
59824;SDS011;45703;50.898;6.054;2024-02-26T12:56:17;6.82;;;3.13;;
59824;SDS011;45703;50.898;6.054;2024-02-26T12:58:43;8.23;;;3.15;;
59824;SDS011;45703;50.898;6.054;2024-02-26T13:01:13;6.95;;;3.10;;
59824;SDS011;45703;50.898;6.054;2024-02-26T13:03:42;7.57;;;3.30;;
59824;SDS011;45703;50.898;6.054;2024-02-26T13:06:08;7.22;;;3.33;;
59824;SDS011;45703;50.898;6.054;2024-02-26T13:08:35;9.45;;;3.60;;
59824;SDS011;45703;50.898;6.054;2024-02-26T13:11:00;7.38;;;3.78;;
59824;SDS011;45703;50.898;6.054;2024-02-26T13:13:25;8.02;;;3.58;;
59824;SDS011;45703;50.898;6.054;2024-02-26T13:16:01;8.05;;;3.60;;
59824;SDS011;45703;50.898;6.054;2024-02-26T13:18:31;7.53;;;3.88;;
59824;SDS011;45703;50.898;6.054;2024-02-26T13:21:07;7.55;;;3.50;;
59824;SDS011;45703;50.898;6.054;2024-02-26T13:23:37;8.55;;;4.25;;
59824;SDS011;45703;50.898;6.054;2024-02-26T13:26:05;8.10;;;3.80;;
59824;SDS011;45703;50.898;6.054;2024-02-26T13:28:32;8.32;;;4.15;;
59824;SDS011;45703;50.898;6.054;2024-02-26T13:30:58;8.48;;;4.18;;
59824;SDS011;45703;50.898;6.054;2024-02-26T13:33:26;9.48;;;4.40;;
59824;SDS011;45703;50.898;6.054;2024-02-26T13:35:53;8.10;;;4.25;;
59824;SDS011;45703;50.898;6.054;2024-02-26T13:38:20;8.75;;;3.80;;
59824;SDS011;45703;50.898;6.054;2024-02-26T13:40:45;9.73;;;4.63;;
59824;SDS011;45703;50.898;6.054;2024-02-26T13:43:11;8.02;;;4.25;;
59824;SDS011;45703;50.898;6.054;2024-02-26T13:45:37;8.77;;;4.43;;
59824;SDS011;45703;50.898;6.054;2024-02-26T13:48:03;8.60;;;4.70;;
59824;SDS011;45703;50.898;6.054;2024-02-26T13:50:30;9.27;;;4.90;;
59824;SDS011;45703;50.898;6.054;2024-02-26T13:52:56;9.77;;;5.25;;
59824;SDS011;45703;50.898;6.054;2024-02-26T13:55:22;11.30;;;5.45;;
59824;SDS011;45703;50.898;6.054;2024-02-26T13:57:51;9.80;;;5.50;;
59824;SDS011;45703;50.898;6.054;2024-02-26T14:00:20;11.05;;;6.35;;
59824;SDS011;45703;50.898;6.054;2024-02-26T14:02:46;9.05;;;4.72;;
59824;SDS011;45703;50.898;6.054;2024-02-26T14:05:11;10.30;;;5.75;;
59824;SDS011;45703;50.898;6.054;2024-02-26T14:07:37;11.80;;;6.43;;
59824;SDS011;45703;50.898;6.054;2024-02-26T14:10:02;10.90;;;6.30;;
59824;SDS011;45703;50.898;6.054;2024-02-26T14:12:28;10.57;;;5.32;;
59824;SDS011;45703;50.898;6.054;2024-02-26T14:14:53;11.43;;;6.40;;
59824;SDS011;45703;50.898;6.054;2024-02-26T14:17:20;12.13;;;6.50;;
59824;SDS011;45703;50.898;6.054;2024-02-26T14:19:47;12.45;;;7.13;;
59824;SDS011;45703;50.898;6.054;2024-02-26T14:22:13;14.18;;;7.22;;
59824;SDS011;45703;50.898;6.054;2024-02-26T14:24:40;11.57;;;6.47;;
59824;SDS011;45703;50.898;6.054;2024-02-26T14:27:07;14.70;;;7.75;;
59824;SDS011;45703;50.898;6.054;2024-02-26T14:29:33;13.50;;;7.30;;
59824;SDS011;45703;50.898;6.054;2024-02-26T14:31:59;12.98;;;7.25;;
59824;SDS011;45703;50.898;6.054;2024-02-26T14:34:26;14.13;;;7.97;;
59824;SDS011;45703;50.898;6.054;2024-02-26T14:36:52;13.38;;;6.90;;
59824;SDS011;45703;50.898;6.054;2024-02-26T14:39:17;13.43;;;7.43;;
59824;SDS011;45703;50.898;6.054;2024-02-26T14:41:43;13.88;;;7.47;;
59824;SDS011;45703;50.898;6.054;2024-02-26T14:44:08;14.60;;;8.23;;
59824;SDS011;45703;50.898;6.054;2024-02-26T14:46:34;14.38;;;8.65;;
59824;SDS011;45703;50.898;6.054;2024-02-26T14:48:59;13.02;;;7.82;;
59824;SDS011;45703;50.898;6.054;2024-02-26T14:51:24;16.23;;;9.70;;
59824;SDS011;45703;50.898;6.054;2024-02-26T14:53:50;15.13;;;8.32;;
59824;SDS011;45703;50.898;6.054;2024-02-26T14:56:15;14.10;;;9.00;;
59824;SDS011;45703;50.898;6.054;2024-02-26T14:58:41;15.55;;;9.60;;